Terminal Aerodrome Forecast
Issued by NWS

Home | Current Version | Previous Version | Text Only | Print | Product List | Glossary On
Versions: 1 2 3 4 5 6 7 8 9 10 11
000
FTUS43 KFGF 281700
TAFBJI
TAF
KBJI 281732Z 2818/0118 18008KT P6SM SCT250
     FM282100 20010KT P6SM BKN080
     FM010200 22009KT 4SM -SN BKN040
     FM010900 24008KT P6SM BKN025=

USA.gov is the U.S. government's official web portal to all federal, state and local government web resources and services.